Station info - map view · info · telemetry · weather · raw · status · beacons · messages · bulletins · browse · moving · my account
Callsign, ship name or locator: Clear       
It is possible to search using wildcards (*?) after a prefix. Example: OH*
APRS station VA3AJ-9 - show graphs
Map loading...
Comment: driving fast
Mic-E message: In service
Location: 42°14.17' N 82°57.26' W - locator EN82MF56LQ - show map - static map
5.4 miles Southeast bearing 144° from Windsor, Ontario, Canada [?]
8.1 miles Southeast bearing 145° from Detroit, Wayne County, Michigan, United States
82.3 miles Northwest bearing 309° from Cleveland, Cuyahoga County, Ohio, United States
Last position: 2017-04-16 13:16:06 EDT (11d 9h2m ago)
2017-04-16 13:16:06 EDT local time at Windsor, Canada [?]
Altitude: 725 ft
Course: 173°
Speed: 11 MPH
Device: Kenwood: TM-D710 (rig)
Last path: VA3AJ-9>T2QT1W via VE3WRC,WIDE1*,WIDE2-1,qAR,VE3SPR (good)
Positions stored: 10816
Stations near current position of VA3AJ-9 - show more
callsign distance last heard - EDT      callsign distance last heard - EDT
VE3LDJ1.1 miles 315°2017-04-26 17:40:58 VA3WDG-B1.1 miles 315°2017-04-27 21:50:39
VA3WDG B1.1 miles 315°2017-04-27 21:50:39 EW47491.3 miles 320°2017-04-27 22:16:21
CYQG2.2 miles 343°2017-04-02 16:04:36 VE3DPJ-93.4 miles 347°2017-04-24 18:46:30
VA3NXE4.0 miles 327°2017-04-01 11:53:22 VA3NXE4.0 miles 327°2017-04-06 21:02:20
VA3NXE-94.0 miles 318°2017-04-27 16:12:52 VA3XJ-94.3 miles 348°2017-04-27 19:43:01
VE3WEJ4.7 miles 322°2017-04-27 22:12:11 VE3ZIN C5.6 miles 349°2017-04-27 22:10:01
VE3ZIN-C5.6 miles 349°2017-04-27 22:10:11 VA3UG5.6 miles 349°2017-04-27 22:04:05
EW06416.0 miles 347°2017-04-27 22:10:56 VE3ZO-96.1 miles 5°2017-04-27 21:24:57
VE3CTP C6.1 miles 5°2017-04-01 20:30:31 VE3CTP-C6.1 miles 5°2017-04-01 20:30:41
VE3CTP6.1 miles 5°2017-04-27 22:10:22 EW24136.3 miles 287°2017-04-27 22:16:43
Stations which heard VA3AJ-9 directly on radio –
callsign pkts first heard - EDT last heard longest (tx => rx) longest at - EDT
VE3KSR 49 2017-04-11 15:30:32 2017-04-12 01:48:57 EN93XL > EN93QJ 31.9 miles 261° 2017-04-12 00:26:21
VE3TEJ 30 2017-04-11 14:35:59 2017-04-12 02:18:34 EN92MX > EN92JW 16.5 miles 259° 2017-04-11 15:10:45
VA3DVR 2 2017-04-11 14:34:19 2017-04-11 15:09:06 EN92MX > EN92KT 16.1 miles 218° 2017-04-11 15:09:06
K8UI-1 9 2017-04-02 13:42:21 2017-04-15 16:24:47 EN82NE > EN81SH 64.5 miles 162° 2017-04-13 18:03:50
VE3CTP 53 2017-04-02 13:54:45 2017-04-16 13:12:18 EN82OD > EN82MH 12.9 miles 332° 2017-04-13 18:06:23
VE3KCR 24 2017-04-11 13:44:35 2017-04-15 14:34:44 EN82NF > EN82WK 43.6 miles 69° 2017-04-13 07:49:27
VA3BAL-4 7 2017-04-11 16:35:36 2017-04-11 23:50:45 FN03DP > FN04HA 32.4 miles 32° 2017-04-11 16:35:36
VE3ID-8 8 2017-04-11 17:03:50 2017-04-11 23:45:15 FN03FO > FN03HQ 9.3 miles 57° 2017-04-11 23:45:15
VE3GXV 8 2017-04-11 17:30:54 2017-04-12 00:07:56 FN03GP > FN03EO 11.4 miles 254° 2017-04-11 17:30:54
VE3SPR 65 2017-04-02 13:36:49 2017-04-16 12:26:41 EN82NE > EN82QA 15.1 miles 127° 2017-04-16 12:26:41
KD8QWT 1 2017-04-13 17:50:09 2017-04-13 17:50:09 EN82MG > EN82IF 15.2 miles 266° 2017-04-13 17:50:09
VA3ITA-7 2 2017-04-11 16:26:11 2017-04-11 16:52:04 FN03FQ > FN03CR 12.7 miles 292° 2017-04-11 16:52:04
VE3TKB 1 2017-04-11 14:58:07 2017-04-11 14:58:07 EN92JW > EN92IX 5.0 miles 301° 2017-04-11 14:58:07
VE3CRC 15 2017-04-11 13:54:35 2017-04-12 02:56:09 EN82WJ > EN92AO 18.1 miles 20° 2017-04-12 02:56:09
VE3OSH 2 2017-04-11 23:17:32 2017-04-11 23:19:29 FN03HP > FN04MA 36.1 miles 40° 2017-04-11 23:19:29
VE3ISR-10 17 2017-04-11 14:17:39 2017-04-12 02:32:09 EN92EO > EN92GP 9.8 miles 59° 2017-04-12 02:32:09
VE3MUM-1 10 2017-04-11 16:37:15 2017-04-11 17:34:13 FN03HP > FN03ER 15.0 miles 295° 2017-04-11 17:34:13
VA3XLT 7 2017-04-11 13:51:15 2017-04-12 03:01:09 EN92AK > EN82VK 10.9 miles 268° 2017-04-11 13:59:35
VE3OAK 17 2017-04-11 16:23:57 2017-04-12 00:06:19 FN03HP > FN03DL 19.1 miles 232° 2017-04-11 23:20:51
VA3LKS 2 2017-04-11 17:36:11 2017-04-11 23:18:13 FN03HP > FN03OV 33.9 miles 56° 2017-04-11 23:18:13
VA3COE-1 43 2017-04-02 13:39:02 2017-04-16 12:35:40 EN82RE > EN82OD 14.1 miles 258° 2017-04-12 03:24:24

Only position packets which were originated by the station are shown here. The range statistics show some extra long hops, because some digipeaters do not correctly add themselves to the digipeater path. Please check the raw packets.
About this site
This page shows real-time information collected from the Automatic Position Reporting System Internet network (APRS-IS). APRS is used by amateur (ham) radio operators to transmit real-time position information, weather data, telemetry and messages over the radio. A vehicle equipped with a GPS receiver, a VHF transmitter or HF transceiver and a small computer device called a tracker transmits it's location, speed and course in a small data packet, which is then received by a nearby iGate receiving site which forwards the packet on the Internet. Systems connected to the Internet can send information on the APRS-IS without a radio transmitter, or collect and display information transmitted anywhere in the world.
FAQ · Blog · Discussion group · Linking to aprs.fi · AIS sites · Service status · Database statistics · Advertising on aprs.fi · Technical details · API · Change log · Planned changes · Credits and thanks · Terms Of Service · iPhone/iPad APRS